sensor_id;sensor_type;location;lat;lon;timestamp;P1;durP1;ratioP1;P2;durP2;ratioP2
11006;SDS011;8186;57.652;11.968;2023-02-11T00:00:57;30.23;;;6.57;;
11006;SDS011;8186;57.652;11.968;2023-02-11T00:03:24;26.13;;;5.53;;
11006;SDS011;8186;57.652;11.968;2023-02-11T00:05:57;30.30;;;5.93;;
11006;SDS011;8186;57.652;11.968;2023-02-11T00:08:24;28.13;;;5.93;;
11006;SDS011;8186;57.652;11.968;2023-02-11T00:10:53;24.67;;;6.00;;
11006;SDS011;8186;57.652;11.968;2023-02-11T00:13:21;28.63;;;5.73;;
11006;SDS011;8186;57.652;11.968;2023-02-11T00:15:48;30.23;;;5.57;;
11006;SDS011;8186;57.652;11.968;2023-02-11T00:18:15;30.30;;;6.20;;
11006;SDS011;8186;57.652;11.968;2023-02-11T00:20:42;26.33;;;6.00;;
11006;SDS011;8186;57.652;11.968;2023-02-11T00:23:09;31.23;;;6.27;;
11006;SDS011;8186;57.652;11.968;2023-02-11T00:25:37;26.80;;;5.13;;
11006;SDS011;8186;57.652;11.968;2023-02-11T00:28:06;26.63;;;5.67;;
11006;SDS011;8186;57.652;11.968;2023-02-11T00:30:33;26.43;;;5.20;;
11006;SDS011;8186;57.652;11.968;2023-02-11T00:33:00;24.80;;;5.50;;
11006;SDS011;8186;57.652;11.968;2023-02-11T00:35:28;28.70;;;5.43;;
11006;SDS011;8186;57.652;11.968;2023-02-11T00:37:55;26.70;;;5.80;;
11006;SDS011;8186;57.652;11.968;2023-02-11T00:40:22;18.40;;;4.30;;
11006;SDS011;8186;57.652;11.968;2023-02-11T00:42:49;26.10;;;6.23;;
11006;SDS011;8186;57.652;11.968;2023-02-11T00:45:17;25.53;;;5.27;;
11006;SDS011;8186;57.652;11.968;2023-02-11T00:47:45;35.50;;;6.07;;
11006;SDS011;8186;57.652;11.968;2023-02-11T00:50:12;32.20;;;5.23;;
11006;SDS011;8186;57.652;11.968;2023-02-11T00:52:39;31.60;;;6.53;;
11006;SDS011;8186;57.652;11.968;2023-02-11T00:55:06;27.10;;;6.27;;
11006;SDS011;8186;57.652;11.968;2023-02-11T00:57:33;25.27;;;5.37;;
11006;SDS011;8186;57.652;11.968;2023-02-11T01:00:00;19.83;;;5.00;;
11006;SDS011;8186;57.652;11.968;2023-02-11T01:02:28;26.57;;;5.70;;
11006;SDS011;8186;57.652;11.968;2023-02-11T01:04:55;27.37;;;5.33;;
11006;SDS011;8186;57.652;11.968;2023-02-11T01:07:24;30.80;;;6.43;;
11006;SDS011;8186;57.652;11.968;2023-02-11T01:09:51;23.63;;;5.53;;
11006;SDS011;8186;57.652;11.968;2023-02-11T01:12:17;25.67;;;5.73;;
11006;SDS011;8186;57.652;11.968;2023-02-11T01:14:44;28.33;;;6.47;;
11006;SDS011;8186;57.652;11.968;2023-02-11T01:17:11;28.97;;;6.43;;
11006;SDS011;8186;57.652;11.968;2023-02-11T01:19:39;30.83;;;6.13;;
11006;SDS011;8186;57.652;11.968;2023-02-11T01:22:07;27.73;;;5.67;;
11006;SDS011;8186;57.652;11.968;2023-02-11T01:24:33;29.80;;;5.97;;
11006;SDS011;8186;57.652;11.968;2023-02-11T01:27:00;28.53;;;6.00;;
11006;SDS011;8186;57.652;11.968;2023-02-11T01:29:27;25.10;;;4.80;;
11006;SDS011;8186;57.652;11.968;2023-02-11T01:31:54;24.80;;;5.83;;
11006;SDS011;8186;57.652;11.968;2023-02-11T01:34:21;31.90;;;6.23;;
11006;SDS011;8186;57.652;11.968;2023-02-11T01:36:49;32.00;;;6.73;;
11006;SDS011;8186;57.652;11.968;2023-02-11T01:39:16;31.90;;;6.13;;
11006;SDS011;8186;57.652;11.968;2023-02-11T01:41:43;24.13;;;5.40;;
11006;SDS011;8186;57.652;11.968;2023-02-11T01:44:26;21.83;;;5.80;;
11006;SDS011;8186;57.652;11.968;2023-02-11T01:46:55;30.47;;;5.47;;
11006;SDS011;8186;57.652;11.968;2023-02-11T01:49:24;25.83;;;5.53;;
11006;SDS011;8186;57.652;11.968;2023-02-11T01:51:54;28.27;;;5.83;;
11006;SDS011;8186;57.652;11.968;2023-02-11T01:54:23;26.43;;;6.03;;
11006;SDS011;8186;57.652;11.968;2023-02-11T01:57:10;24.60;;;5.30;;
11006;SDS011;8186;57.652;11.968;2023-02-11T01:59:50;31.93;;;5.00;;
11006;SDS011;8186;57.652;11.968;2023-02-11T02:02:25;27.13;;;6.13;;
11006;SDS011;8186;57.652;11.968;2023-02-11T02:04:56;24.37;;;5.60;;
11006;SDS011;8186;57.652;11.968;2023-02-11T02:07:31;30.47;;;5.80;;
11006;SDS011;8186;57.652;11.968;2023-02-11T02:10:00;30.60;;;5.87;;
11006;SDS011;8186;57.652;11.968;2023-02-11T02:12:29;29.40;;;6.30;;
11006;SDS011;8186;57.652;11.968;2023-02-11T02:17:56;31.93;;;6.00;;
11006;SDS011;8186;57.652;11.968;2023-02-11T02:20:44;24.60;;;5.00;;
11006;SDS011;8186;57.652;11.968;2023-02-11T02:23:53;25.73;;;5.87;;
11006;SDS011;8186;57.652;11.968;2023-02-11T02:32:55;36.77;;;6.20;;
11006;SDS011;8186;57.652;11.968;2023-02-11T02:35:28;30.07;;;6.53;;
11006;SDS011;8186;57.652;11.968;2023-02-11T02:38:00;26.43;;;6.03;;
11006;SDS011;8186;57.652;11.968;2023-02-11T02:40:31;32.00;;;6.10;;
11006;SDS011;8186;57.652;11.968;2023-02-11T02:43:02;32.40;;;6.47;;
11006;SDS011;8186;57.652;11.968;2023-02-11T02:45:30;28.37;;;6.03;;
11006;SDS011;8186;57.652;11.968;2023-02-11T02:47:59;32.70;;;6.70;;
11006;SDS011;8186;57.652;11.968;2023-02-11T02:50:27;28.73;;;5.60;;
11006;SDS011;8186;57.652;11.968;2023-02-11T02:52:59;30.77;;;6.73;;
11006;SDS011;8186;57.652;11.968;2023-02-11T02:55:40;27.77;;;6.87;;
11006;SDS011;8186;57.652;11.968;2023-02-11T02:58:24;31.30;;;6.77;;
11006;SDS011;8186;57.652;11.968;2023-02-11T03:01:05;29.57;;;6.00;;
11006;SDS011;8186;57.652;11.968;2023-02-11T03:03:37;30.53;;;6.27;;
11006;SDS011;8186;57.652;11.968;2023-02-11T03:06:10;37.47;;;6.83;;
11006;SDS011;8186;57.652;11.968;2023-02-11T03:08:41;33.73;;;6.50;;
11006;SDS011;8186;57.652;11.968;2023-02-11T03:11:09;29.77;;;6.30;;
11006;SDS011;8186;57.652;11.968;2023-02-11T03:13:38;27.53;;;7.13;;
11006;SDS011;8186;57.652;11.968;2023-02-11T03:16:06;31.30;;;5.83;;
11006;SDS011;8186;57.652;11.968;2023-02-11T03:18:37;33.87;;;7.17;;
11006;SDS011;8186;57.652;11.968;2023-02-11T03:21:06;28.50;;;6.30;;
11006;SDS011;8186;57.652;11.968;2023-02-11T03:23:35;29.30;;;6.50;;
11006;SDS011;8186;57.652;11.968;2023-02-11T03:26:05;25.63;;;5.77;;
11006;SDS011;8186;57.652;11.968;2023-02-11T03:28:35;38.63;;;7.13;;
11006;SDS011;8186;57.652;11.968;2023-02-11T03:31:08;38.70;;;7.67;;
11006;SDS011;8186;57.652;11.968;2023-02-11T03:33:38;40.57;;;6.73;;
11006;SDS011;8186;57.652;11.968;2023-02-11T03:36:08;36.03;;;6.60;;
11006;SDS011;8186;57.652;11.968;2023-02-11T03:38:41;38.30;;;7.13;;
11006;SDS011;8186;57.652;11.968;2023-02-11T03:41:11;35.97;;;8.23;;
11006;SDS011;8186;57.652;11.968;2023-02-11T03:43:39;32.03;;;7.53;;
11006;SDS011;8186;57.652;11.968;2023-02-11T03:46:08;34.17;;;6.97;;
11006;SDS011;8186;57.652;11.968;2023-02-11T03:48:38;23.50;;;6.37;;
11006;SDS011;8186;57.652;11.968;2023-02-11T03:51:06;32.13;;;6.33;;
11006;SDS011;8186;57.652;11.968;2023-02-11T03:53:35;25.40;;;6.00;;
11006;SDS011;8186;57.652;11.968;2023-02-11T03:56:04;34.47;;;6.13;;
11006;SDS011;8186;57.652;11.968;2023-02-11T03:58:33;27.70;;;5.43;;
11006;SDS011;8186;57.652;11.968;2023-02-11T04:00:59;29.97;;;5.97;;
11006;SDS011;8186;57.652;11.968;2023-02-11T04:03:26;24.70;;;5.47;;
11006;SDS011;8186;57.652;11.968;2023-02-11T04:05:55;23.83;;;5.90;;
11006;SDS011;8186;57.652;11.968;2023-02-11T04:08:22;22.20;;;5.70;;
11006;SDS011;8186;57.652;11.968;2023-02-11T04:10:49;31.20;;;6.13;;
11006;SDS011;8186;57.652;11.968;2023-02-11T04:13:16;20.63;;;4.87;;
11006;SDS011;8186;57.652;11.968;2023-02-11T04:15:43;22.93;;;4.87;;
11006;SDS011;8186;57.652;11.968;2023-02-11T04:18:10;28.80;;;5.17;;
11006;SDS011;8186;57.652;11.968;2023-02-11T04:20:37;22.97;;;4.80;;
11006;SDS011;8186;57.652;11.968;2023-02-11T04:23:05;24.20;;;4.93;;
11006;SDS011;8186;57.652;11.968;2023-02-11T04:25:32;25.20;;;4.93;;
11006;SDS011;8186;57.652;11.968;2023-02-11T04:27:59;32.87;;;5.37;;
11006;SDS011;8186;57.652;11.968;2023-02-11T04:30:26;24.83;;;4.63;;
11006;SDS011;8186;57.652;11.968;2023-02-11T04:32:53;26.97;;;5.20;;
11006;SDS011;8186;57.652;11.968;2023-02-11T04:35:20;24.47;;;4.97;;
11006;SDS011;8186;57.652;11.968;2023-02-11T04:37:47;26.43;;;5.87;;
11006;SDS011;8186;57.652;11.968;2023-02-11T04:40:15;29.57;;;5.00;;
11006;SDS011;8186;57.652;11.968;2023-02-11T04:42:42;23.43;;;4.70;;
11006;SDS011;8186;57.652;11.968;2023-02-11T04:45:09;33.80;;;5.80;;
11006;SDS011;8186;57.652;11.968;2023-02-11T04:47:36;29.33;;;6.17;;
11006;SDS011;8186;57.652;11.968;2023-02-11T04:50:03;28.73;;;6.03;;
11006;SDS011;8186;57.652;11.968;2023-02-11T04:52:30;25.73;;;6.17;;
11006;SDS011;8186;57.652;11.968;2023-02-11T04:54:57;36.57;;;6.97;;
11006;SDS011;8186;57.652;11.968;2023-02-11T04:57:25;26.33;;;6.63;;
11006;SDS011;8186;57.652;11.968;2023-02-11T04:59:52;35.33;;;7.23;;
11006;SDS011;8186;57.652;11.968;2023-02-11T05:02:19;37.43;;;6.93;;
11006;SDS011;8186;57.652;11.968;2023-02-11T05:04:46;35.37;;;7.13;;
11006;SDS011;8186;57.652;11.968;2023-02-11T05:07:13;35.53;;;7.27;;
11006;SDS011;8186;57.652;11.968;2023-02-11T05:09:40;37.93;;;8.13;;
11006;SDS011;8186;57.652;11.968;2023-02-11T05:12:07;34.27;;;7.70;;
11006;SDS011;8186;57.652;11.968;2023-02-11T05:14:35;32.73;;;7.13;;
11006;SDS011;8186;57.652;11.968;2023-02-11T05:17:02;41.63;;;7.63;;
11006;SDS011;8186;57.652;11.968;2023-02-11T05:19:29;42.40;;;7.30;;
11006;SDS011;8186;57.652;11.968;2023-02-11T05:21:56;31.63;;;7.23;;
11006;SDS011;8186;57.652;11.968;2023-02-11T05:24:23;39.80;;;7.60;;
11006;SDS011;8186;57.652;11.968;2023-02-11T05:26:50;34.50;;;7.10;;
11006;SDS011;8186;57.652;11.968;2023-02-11T05:29:17;34.47;;;7.90;;
11006;SDS011;8186;57.652;11.968;2023-02-11T05:31:45;40.77;;;8.53;;
11006;SDS011;8186;57.652;11.968;2023-02-11T05:34:12;39.43;;;8.27;;
11006;SDS011;8186;57.652;11.968;2023-02-11T05:36:39;36.00;;;6.77;;
11006;SDS011;8186;57.652;11.968;2023-02-11T05:39:06;46.77;;;9.70;;
11006;SDS011;8186;57.652;11.968;2023-02-11T05:41:33;36.27;;;7.40;;
11006;SDS011;8186;57.652;11.968;2023-02-11T05:44:00;39.57;;;8.40;;
11006;SDS011;8186;57.652;11.968;2023-02-11T05:46:27;33.97;;;7.23;;
11006;SDS011;8186;57.652;11.968;2023-02-11T05:48:55;42.60;;;7.93;;
11006;SDS011;8186;57.652;11.968;2023-02-11T05:51:22;37.03;;;8.27;;
11006;SDS011;8186;57.652;11.968;2023-02-11T05:53:49;43.07;;;8.43;;
11006;SDS011;8186;57.652;11.968;2023-02-11T05:56:16;38.30;;;7.73;;
11006;SDS011;8186;57.652;11.968;2023-02-11T05:58:43;31.87;;;6.70;;
11006;SDS011;8186;57.652;11.968;2023-02-11T06:01:10;31.77;;;6.83;;
11006;SDS011;8186;57.652;11.968;2023-02-11T06:03:37;35.33;;;6.63;;
11006;SDS011;8186;57.652;11.968;2023-02-11T06:06:07;30.23;;;6.70;;
11006;SDS011;8186;57.652;11.968;2023-02-11T06:08:35;32.83;;;6.87;;
11006;SDS011;8186;57.652;11.968;2023-02-11T06:11:02;30.00;;;6.60;;
11006;SDS011;8186;57.652;11.968;2023-02-11T06:13:29;31.97;;;6.43;;
11006;SDS011;8186;57.652;11.968;2023-02-11T06:15:57;27.30;;;5.80;;
11006;SDS011;8186;57.652;11.968;2023-02-11T06:18:24;36.23;;;6.67;;
11006;SDS011;8186;57.652;11.968;2023-02-11T06:20:51;24.93;;;5.63;;
11006;SDS011;8186;57.652;11.968;2023-02-11T06:23:20;30.60;;;6.20;;
11006;SDS011;8186;57.652;11.968;2023-02-11T06:25:46;21.03;;;6.00;;
11006;SDS011;8186;57.652;11.968;2023-02-11T06:28:13;31.10;;;6.20;;
11006;SDS011;8186;57.652;11.968;2023-02-11T06:30:40;27.77;;;5.97;;
11006;SDS011;8186;57.652;11.968;2023-02-11T06:33:07;28.90;;;5.97;;
11006;SDS011;8186;57.652;11.968;2023-02-11T06:35:36;32.10;;;5.93;;
11006;SDS011;8186;57.652;11.968;2023-02-11T06:38:03;30.07;;;6.87;;
11006;SDS011;8186;57.652;11.968;2023-02-11T06:40:32;23.70;;;5.73;;
11006;SDS011;8186;57.652;11.968;2023-02-11T06:42:59;25.00;;;5.80;;
11006;SDS011;8186;57.652;11.968;2023-02-11T06:45:25;29.03;;;6.07;;
11006;SDS011;8186;57.652;11.968;2023-02-11T06:47:52;24.57;;;6.37;;
11006;SDS011;8186;57.652;11.968;2023-02-11T06:50:19;28.53;;;6.37;;
11006;SDS011;8186;57.652;11.968;2023-02-11T06:52:46;39.33;;;5.10;;
11006;SDS011;8186;57.652;11.968;2023-02-11T06:55:13;19.87;;;4.73;;
11006;SDS011;8186;57.652;11.968;2023-02-11T06:57:41;23.67;;;5.10;;
11006;SDS011;8186;57.652;11.968;2023-02-11T07:00:09;27.37;;;5.67;;
11006;SDS011;8186;57.652;11.968;2023-02-11T07:02:36;25.10;;;4.67;;
11006;SDS011;8186;57.652;11.968;2023-02-11T07:05:04;27.50;;;4.63;;
11006;SDS011;8186;57.652;11.968;2023-02-11T07:07:32;23.30;;;5.20;;
11006;SDS011;8186;57.652;11.968;2023-02-11T07:09:59;21.07;;;4.60;;
11006;SDS011;8186;57.652;11.968;2023-02-11T07:12:27;21.73;;;4.60;;
11006;SDS011;8186;57.652;11.968;2023-02-11T07:14:56;19.77;;;3.70;;
11006;SDS011;8186;57.652;11.968;2023-02-11T07:17:23;20.00;;;4.87;;
11006;SDS011;8186;57.652;11.968;2023-02-11T07:19:50;22.57;;;4.23;;
11006;SDS011;8186;57.652;11.968;2023-02-11T07:22:16;22.97;;;3.93;;
11006;SDS011;8186;57.652;11.968;2023-02-11T07:24:43;18.83;;;4.07;;
11006;SDS011;8186;57.652;11.968;2023-02-11T07:27:10;21.37;;;4.97;;
11006;SDS011;8186;57.652;11.968;2023-02-11T07:29:37;18.70;;;4.03;;
11006;SDS011;8186;57.652;11.968;2023-02-11T07:32:06;13.63;;;3.90;;
11006;SDS011;8186;57.652;11.968;2023-02-11T07:34:34;20.63;;;3.67;;
11006;SDS011;8186;57.652;11.968;2023-02-11T07:37:01;26.53;;;3.77;;
11006;SDS011;8186;57.652;11.968;2023-02-11T07:39:28;14.50;;;3.20;;
11006;SDS011;8186;57.652;11.968;2023-02-11T07:41:55;20.27;;;4.00;;
11006;SDS011;8186;57.652;11.968;2023-02-11T07:44:22;17.97;;;3.93;;
11006;SDS011;8186;57.652;11.968;2023-02-11T07:46:49;16.03;;;3.70;;
11006;SDS011;8186;57.652;11.968;2023-02-11T07:49:17;17.33;;;3.90;;
11006;SDS011;8186;57.652;11.968;2023-02-11T07:51:44;17.53;;;3.23;;
11006;SDS011;8186;57.652;11.968;2023-02-11T07:54:13;17.00;;;3.63;;
11006;SDS011;8186;57.652;11.968;2023-02-11T07:56:40;25.70;;;4.33;;
11006;SDS011;8186;57.652;11.968;2023-02-11T07:59:07;18.60;;;4.53;;
11006;SDS011;8186;57.652;11.968;2023-02-11T08:01:33;26.23;;;4.27;;
11006;SDS011;8186;57.652;11.968;2023-02-11T08:04:01;19.57;;;4.40;;
11006;SDS011;8186;57.652;11.968;2023-02-11T08:06:31;20.27;;;3.60;;
11006;SDS011;8186;57.652;11.968;2023-02-11T08:09:02;20.63;;;4.00;;
11006;SDS011;8186;57.652;11.968;2023-02-11T08:11:29;20.77;;;4.17;;
11006;SDS011;8186;57.652;11.968;2023-02-11T08:13:56;17.53;;;4.00;;
11006;SDS011;8186;57.652;11.968;2023-02-11T08:16:24;20.80;;;4.17;;
11006;SDS011;8186;57.652;11.968;2023-02-11T08:18:52;20.20;;;4.47;;
11006;SDS011;8186;57.652;11.968;2023-02-11T08:21:22;18.80;;;3.70;;
11006;SDS011;8186;57.652;11.968;2023-02-11T08:23:51;13.00;;;3.00;;
11006;SDS011;8186;57.652;11.968;2023-02-11T08:26:19;15.77;;;3.03;;
11006;SDS011;8186;57.652;11.968;2023-02-11T08:28:47;14.47;;;4.33;;
11006;SDS011;8186;57.652;11.968;2023-02-11T08:31:16;18.17;;;3.73;;
11006;SDS011;8186;57.652;11.968;2023-02-11T08:33:44;20.70;;;3.73;;
11006;SDS011;8186;57.652;11.968;2023-02-11T08:36:13;19.37;;;4.03;;
11006;SDS011;8186;57.652;11.968;2023-02-11T08:38:40;17.53;;;4.63;;
11006;SDS011;8186;57.652;11.968;2023-02-11T08:41:09;18.60;;;3.93;;
11006;SDS011;8186;57.652;11.968;2023-02-11T08:43:39;20.37;;;4.23;;
11006;SDS011;8186;57.652;11.968;2023-02-11T08:46:07;16.90;;;4.20;;
11006;SDS011;8186;57.652;11.968;2023-02-11T08:48:34;15.13;;;3.73;;
11006;SDS011;8186;57.652;11.968;2023-02-11T08:51:04;22.80;;;4.00;;
11006;SDS011;8186;57.652;11.968;2023-02-11T08:53:33;17.27;;;4.27;;
11006;SDS011;8186;57.652;11.968;2023-02-11T08:56:00;16.77;;;3.97;;
11006;SDS011;8186;57.652;11.968;2023-02-11T08:58:28;19.27;;;4.10;;
11006;SDS011;8186;57.652;11.968;2023-02-11T09:00:55;18.43;;;4.07;;
11006;SDS011;8186;57.652;11.968;2023-02-11T09:03:22;21.07;;;4.03;;
11006;SDS011;8186;57.652;11.968;2023-02-11T09:05:49;19.50;;;4.20;;
11006;SDS011;8186;57.652;11.968;2023-02-11T09:08:17;16.47;;;4.13;;
11006;SDS011;8186;57.652;11.968;2023-02-11T09:10:45;16.80;;;3.90;;
11006;SDS011;8186;57.652;11.968;2023-02-11T09:13:12;14.90;;;4.33;;
11006;SDS011;8186;57.652;11.968;2023-02-11T09:15:40;15.17;;;4.20;;
11006;SDS011;8186;57.652;11.968;2023-02-11T09:18:10;15.70;;;4.70;;
11006;SDS011;8186;57.652;11.968;2023-02-11T09:20:37;13.50;;;3.50;;
11006;SDS011;8186;57.652;11.968;2023-02-11T09:23:04;19.83;;;3.20;;
11006;SDS011;8186;57.652;11.968;2023-02-11T09:25:31;16.73;;;3.57;;
11006;SDS011;8186;57.652;11.968;2023-02-11T09:27:58;13.07;;;3.50;;
11006;SDS011;8186;57.652;11.968;2023-02-11T09:30:25;15.83;;;3.67;;
11006;SDS011;8186;57.652;11.968;2023-02-11T09:32:53;15.57;;;2.90;;
11006;SDS011;8186;57.652;11.968;2023-02-11T09:35:20;13.37;;;3.50;;
11006;SDS011;8186;57.652;11.968;2023-02-11T09:37:47;12.50;;;3.20;;
11006;SDS011;8186;57.652;11.968;2023-02-11T09:40:14;14.97;;;3.20;;
11006;SDS011;8186;57.652;11.968;2023-02-11T09:42:43;14.20;;;3.53;;
11006;SDS011;8186;57.652;11.968;2023-02-11T09:45:12;15.83;;;3.43;;
11006;SDS011;8186;57.652;11.968;2023-02-11T09:47:45;15.13;;;4.03;;
11006;SDS011;8186;57.652;11.968;2023-02-11T09:50:17;12.67;;;3.30;;
11006;SDS011;8186;57.652;11.968;2023-02-11T09:52:49;17.90;;;3.07;;
11006;SDS011;8186;57.652;11.968;2023-02-11T09:55:19;13.33;;;3.67;;
11006;SDS011;8186;57.652;11.968;2023-02-11T09:57:48;13.67;;;3.60;;
11006;SDS011;8186;57.652;11.968;2023-02-11T10:00:16;17.27;;;3.20;;
11006;SDS011;8186;57.652;11.968;2023-02-11T10:02:52;20.10;;;3.83;;
11006;SDS011;8186;57.652;11.968;2023-02-11T10:05:29;13.37;;;3.60;;
11006;SDS011;8186;57.652;11.968;2023-02-11T10:08:04;20.57;;;4.57;;
11006;SDS011;8186;57.652;11.968;2023-02-11T10:10:42;15.80;;;3.67;;
11006;SDS011;8186;57.652;11.968;2023-02-11T10:13:19;19.40;;;4.20;;
11006;SDS011;8186;57.652;11.968;2023-02-11T10:15:53;13.10;;;3.87;;
11006;SDS011;8186;57.652;11.968;2023-02-11T10:18:29;16.80;;;3.87;;
11006;SDS011;8186;57.652;11.968;2023-02-11T10:21:07;17.93;;;4.00;;
11006;SDS011;8186;57.652;11.968;2023-02-11T10:23:40;14.70;;;3.50;;
11006;SDS011;8186;57.652;11.968;2023-02-11T10:26:09;15.83;;;2.63;;
11006;SDS011;8186;57.652;11.968;2023-02-11T10:28:37;14.30;;;3.23;;
11006;SDS011;8186;57.652;11.968;2023-02-11T10:31:07;15.60;;;4.13;;
11006;SDS011;8186;57.652;11.968;2023-02-11T10:33:35;14.67;;;3.50;;
11006;SDS011;8186;57.652;11.968;2023-02-11T10:36:10;11.63;;;3.60;;
11006;SDS011;8186;57.652;11.968;2023-02-11T10:38:38;16.67;;;3.97;;
11006;SDS011;8186;57.652;11.968;2023-02-11T10:41:05;11.73;;;3.47;;
11006;SDS011;8186;57.652;11.968;2023-02-11T10:43:34;12.60;;;3.70;;
11006;SDS011;8186;57.652;11.968;2023-02-11T10:46:02;21.43;;;4.27;;
11006;SDS011;8186;57.652;11.968;2023-02-11T10:48:38;14.23;;;3.90;;
11006;SDS011;8186;57.652;11.968;2023-02-11T10:51:07;14.73;;;3.73;;
11006;SDS011;8186;57.652;11.968;2023-02-11T10:53:40;17.57;;;3.43;;
11006;SDS011;8186;57.652;11.968;2023-02-11T10:56:09;16.17;;;4.60;;
11006;SDS011;8186;57.652;11.968;2023-02-11T10:58:39;15.03;;;3.90;;
11006;SDS011;8186;57.652;11.968;2023-02-11T11:01:07;15.40;;;4.20;;
11006;SDS011;8186;57.652;11.968;2023-02-11T11:03:35;15.73;;;3.53;;
11006;SDS011;8186;57.652;11.968;2023-02-11T11:06:04;19.90;;;4.80;;
11006;SDS011;8186;57.652;11.968;2023-02-11T11:08:40;15.87;;;4.20;;
11006;SDS011;8186;57.652;11.968;2023-02-11T11:11:10;15.70;;;5.03;;
11006;SDS011;8186;57.652;11.968;2023-02-11T11:13:38;19.80;;;4.90;;
11006;SDS011;8186;57.652;11.968;2023-02-11T11:16:07;16.93;;;5.13;;
11006;SDS011;8186;57.652;11.968;2023-02-11T11:18:42;20.17;;;4.70;;
11006;SDS011;8186;57.652;11.968;2023-02-11T11:21:11;17.63;;;4.73;;
11006;SDS011;8186;57.652;11.968;2023-02-11T11:23:45;23.90;;;5.33;;
11006;SDS011;8186;57.652;11.968;2023-02-11T11:26:21;23.60;;;5.47;;
11006;SDS011;8186;57.652;11.968;2023-02-11T11:28:50;21.03;;;5.53;;
11006;SDS011;8186;57.652;11.968;2023-02-11T11:31:20;24.73;;;5.40;;
11006;SDS011;8186;57.652;11.968;2023-02-11T11:33:49;24.53;;;4.97;;
11006;SDS011;8186;57.652;11.968;2023-02-11T11:36:19;24.07;;;5.17;;
11006;SDS011;8186;57.652;11.968;2023-02-11T11:38:49;20.43;;;5.53;;
11006;SDS011;8186;57.652;11.968;2023-02-11T11:41:20;17.37;;;4.83;;
11006;SDS011;8186;57.652;11.968;2023-02-11T11:43:56;20.97;;;4.77;;
11006;SDS011;8186;57.652;11.968;2023-02-11T11:46:26;16.77;;;5.00;;
11006;SDS011;8186;57.652;11.968;2023-02-11T11:48:55;19.47;;;5.43;;
11006;SDS011;8186;57.652;11.968;2023-02-11T11:51:26;18.53;;;4.53;;
11006;SDS011;8186;57.652;11.968;2023-02-11T11:53:57;25.57;;;4.90;;
11006;SDS011;8186;57.652;11.968;2023-02-11T11:56:26;21.23;;;4.53;;
11006;SDS011;8186;57.652;11.968;2023-02-11T11:58:54;22.73;;;5.33;;
11006;SDS011;8186;57.652;11.968;2023-02-11T12:01:26;21.67;;;5.47;;
11006;SDS011;8186;57.652;11.968;2023-02-11T12:07:00;27.13;;;5.80;;
11006;SDS011;8186;57.652;11.968;2023-02-11T12:09:35;18.97;;;4.67;;
11006;SDS011;8186;57.652;11.968;2023-02-11T12:12:09;24.20;;;5.30;;
11006;SDS011;8186;57.652;11.968;2023-02-11T12:14:45;22.93;;;5.40;;
11006;SDS011;8186;57.652;11.968;2023-02-11T12:17:21;20.43;;;5.30;;
11006;SDS011;8186;57.652;11.968;2023-02-11T12:20:03;20.97;;;5.83;;
11006;SDS011;8186;57.652;11.968;2023-02-11T12:22:40;22.80;;;5.67;;
11006;SDS011;8186;57.652;11.968;2023-02-11T12:25:19;19.43;;;4.90;;
11006;SDS011;8186;57.652;11.968;2023-02-11T12:27:54;21.40;;;5.33;;
11006;SDS011;8186;57.652;11.968;2023-02-11T12:30:33;29.23;;;5.60;;
11006;SDS011;8186;57.652;11.968;2023-02-11T12:33:09;18.87;;;4.77;;
11006;SDS011;8186;57.652;11.968;2023-02-11T12:35:43;18.27;;;5.43;;
11006;SDS011;8186;57.652;11.968;2023-02-11T12:41:18;23.53;;;5.57;;
11006;SDS011;8186;57.652;11.968;2023-02-11T12:44:07;25.47;;;5.90;;
11006;SDS011;8186;57.652;11.968;2023-02-11T12:46:40;19.50;;;5.47;;
11006;SDS011;8186;57.652;11.968;2023-02-11T12:49:15;23.43;;;5.63;;
11006;SDS011;8186;57.652;11.968;2023-02-11T12:51:54;25.73;;;5.70;;
11006;SDS011;8186;57.652;11.968;2023-02-11T12:54:30;24.90;;;5.97;;
11006;SDS011;8186;57.652;11.968;2023-02-11T12:57:02;23.67;;;6.20;;
11006;SDS011;8186;57.652;11.968;2023-02-11T12:59:37;24.00;;;5.53;;
11006;SDS011;8186;57.652;11.968;2023-02-11T13:02:11;22.00;;;5.77;;
11006;SDS011;8186;57.652;11.968;2023-02-11T13:04:45;21.07;;;5.17;;
11006;SDS011;8186;57.652;11.968;2023-02-11T13:07:14;25.50;;;5.70;;
11006;SDS011;8186;57.652;11.968;2023-02-11T13:09:47;21.07;;;6.03;;
11006;SDS011;8186;57.652;11.968;2023-02-11T13:12:18;23.97;;;5.23;;
11006;SDS011;8186;57.652;11.968;2023-02-11T13:15:06;23.47;;;6.23;;
11006;SDS011;8186;57.652;11.968;2023-02-11T13:17:40;22.63;;;5.50;;
11006;SDS011;8186;57.652;11.968;2023-02-11T13:20:14;18.93;;;4.77;;
11006;SDS011;8186;57.652;11.968;2023-02-11T13:22:50;23.13;;;5.50;;
11006;SDS011;8186;57.652;11.968;2023-02-11T13:25:27;24.07;;;6.17;;
11006;SDS011;8186;57.652;11.968;2023-02-11T13:27:58;20.27;;;4.87;;
11006;SDS011;8186;57.652;11.968;2023-02-11T13:30:29;20.80;;;6.90;;
11006;SDS011;8186;57.652;11.968;2023-02-11T13:35:48;23.97;;;6.27;;
11006;SDS011;8186;57.652;11.968;2023-02-11T13:38:16;19.90;;;5.40;;
11006;SDS011;8186;57.652;11.968;2023-02-11T13:40:49;22.53;;;6.33;;
11006;SDS011;8186;57.652;11.968;2023-02-11T13:43:25;21.67;;;5.40;;
11006;SDS011;8186;57.652;11.968;2023-02-11T13:45:56;20.33;;;5.37;;
11006;SDS011;8186;57.652;11.968;2023-02-11T13:48:25;24.50;;;5.30;;
11006;SDS011;8186;57.652;11.968;2023-02-11T13:50:55;21.03;;;6.17;;
11006;SDS011;8186;57.652;11.968;2023-02-11T13:53:24;21.93;;;5.80;;
11006;SDS011;8186;57.652;11.968;2023-02-11T13:55:52;20.60;;;5.97;;
11006;SDS011;8186;57.652;11.968;2023-02-11T13:58:34;22.00;;;5.43;;
11006;SDS011;8186;57.652;11.968;2023-02-11T14:01:05;22.27;;;5.93;;
11006;SDS011;8186;57.652;11.968;2023-02-11T14:03:33;19.87;;;5.90;;
11006;SDS011;8186;57.652;11.968;2023-02-11T14:06:20;22.13;;;6.13;;
11006;SDS011;8186;57.652;11.968;2023-02-11T14:15:14;23.23;;;6.03;;
11006;SDS011;8186;57.652;11.968;2023-02-11T14:17:46;22.93;;;4.80;;
11006;SDS011;8186;57.652;11.968;2023-02-11T14:23:02;16.80;;;5.37;;
11006;SDS011;8186;57.652;11.968;2023-02-11T14:25:29;25.43;;;5.23;;
11006;SDS011;8186;57.652;11.968;2023-02-11T14:27:57;19.67;;;5.40;;
11006;SDS011;8186;57.652;11.968;2023-02-11T14:30:33;15.23;;;4.57;;
11006;SDS011;8186;57.652;11.968;2023-02-11T14:33:15;19.67;;;5.37;;
11006;SDS011;8186;57.652;11.968;2023-02-11T14:36:01;18.10;;;4.53;;
11006;SDS011;8186;57.652;11.968;2023-02-11T14:38:37;16.67;;;4.90;;
11006;SDS011;8186;57.652;11.968;2023-02-11T14:41:10;23.40;;;6.17;;
11006;SDS011;8186;57.652;11.968;2023-02-11T14:43:38;18.70;;;5.67;;
11006;SDS011;8186;57.652;11.968;2023-02-11T14:46:07;21.90;;;6.20;;
11006;SDS011;8186;57.652;11.968;2023-02-11T14:48:35;26.37;;;6.47;;
11006;SDS011;8186;57.652;11.968;2023-02-11T14:51:05;22.87;;;5.40;;
11006;SDS011;8186;57.652;11.968;2023-02-11T14:53:33;21.57;;;5.23;;
11006;SDS011;8186;57.652;11.968;2023-02-11T14:56:00;18.93;;;4.53;;
11006;SDS011;8186;57.652;11.968;2023-02-11T14:58:27;20.23;;;5.13;;
11006;SDS011;8186;57.652;11.968;2023-02-11T15:00:55;19.70;;;5.13;;
11006;SDS011;8186;57.652;11.968;2023-02-11T15:03:25;20.77;;;4.20;;
11006;SDS011;8186;57.652;11.968;2023-02-11T15:05:54;13.87;;;4.20;;
11006;SDS011;8186;57.652;11.968;2023-02-11T15:08:22;15.43;;;4.97;;
11006;SDS011;8186;57.652;11.968;2023-02-11T15:10:49;22.63;;;5.23;;
11006;SDS011;8186;57.652;11.968;2023-02-11T15:13:17;16.80;;;5.23;;
11006;SDS011;8186;57.652;11.968;2023-02-11T15:15:45;20.47;;;4.97;;